EDVK

Kassel-Calden Airport

Kassel, Germany
METAR EDVK 171350Z 19008KT 9999 BKN012 BKN040 03/02 Q1019
Observed Flight Rules
Dec-17 @ 13:50 UTC (38 minutes ago) Marginal Visual Flight Rules
Wind Visibility Clouds
190° at 8 knots 10,000+ meters
  • Broken at 1,200' AGL
  • Broken at 4,000' AGL
Temperatures Readings
Current 3°C / 37°F
Dewpoint 2°C / 36°F
Humidity 93%
Altimeter 30.09" Hg
Pressure 1019 hPa
Elevation 285
METAR EDVK 171350Z 19008KT 9999 BKN012 BKN040 03/02 Q1019
Observed Flight Rules
Dec-17 @ 13:50 UTC
(38 minutes ago)
MVFR
Wind Visibility
190° at 8 knots 10,000+ meters
Clouds
  • Broken at 1,200' AGL
  • Broken at 4,000' AGL
Temperature Dewpoint
3°C / 37°F 2°C / 36°F
Humidity Altimeter Pressure
93% 30.09" Hg 1019 hPa